Time;durP1;ratioP1;P1;durP2;ratioP2;P2;SDS_P1;SDS_P2;PMS_P1;PMS_P2;Temp;Humidity;BMP_temperature;BMP_pressure;BME280_temperature;BME280_humidity;BME280_pressure;Samples;Min_cycle;Max_cycle;Signal;HPM_P1;HPM_P2
2023/07/26 00:00:11;;;;;;;12.47;11.27;;;14.70;99.90;;;;;;5061859;28;20192;-70
2023/07/26 00:02:36;;;;;;;12.30;10.95;;;14.90;99.90;;;;;;5047982;28;20199;-69
2023/07/26 00:05:02;;;;;;;13.70;12.03;;;15.00;99.90;;;;;;5049840;28;20693;-69
2023/07/26 00:07:28;;;;;;;12.17;11.03;;;15.00;99.90;;;;;;5045431;28;20255;-69
2023/07/26 00:09:53;;;;;;;12.40;11.23;;;14.80;99.90;;;;;;5060105;28;20748;-70
2023/07/26 00:12:19;;;;;;;13.20;11.10;;;15.00;99.90;;;;;;5052734;28;20176;-71
2023/07/26 00:14:44;;;;;;;18.20;12.63;;;15.00;99.90;;;;;;5060967;28;20673;-69
2023/07/26 00:17:10;;;;;;;13.47;12.17;;;14.70;99.90;;;;;;5065727;28;20653;-70
2023/07/26 00:19:35;;;;;;;13.90;12.20;;;15.60;99.90;;;;;;5052236;28;20207;-70
2023/07/26 00:22:01;;;;;;;14.30;12.90;;;14.90;99.90;;;;;;5062664;28;20273;-69
2023/07/26 00:24:27;;;;;;;14.00;12.60;;;14.90;99.90;;;;;;5064281;28;20204;-68
2023/07/26 00:26:52;;;;;;;14.17;12.77;;;15.00;99.90;;;;;;5061851;28;20479;-70
2023/07/26 00:29:18;;;;;;;13.93;12.50;;;15.00;99.90;;;;;;5045863;28;20669;-70
2023/07/26 00:31:44;;;;;;;15.97;12.97;;;15.20;99.90;;;;;;5062928;28;20185;-69
2023/07/26 00:34:09;;;;;;;14.27;12.97;;;14.90;99.90;;;;;;5052433;28;20253;-68
2023/07/26 00:36:35;;;;;;;14.27;12.97;;;15.10;99.90;;;;;;5053259;28;20653;-69
2023/07/26 00:39:00;;;;;;;14.00;12.60;;;14.90;99.90;;;;;;5047694;28;20188;-69
2023/07/26 00:41:27;;;;;;;16.30;12.60;;;15.30;99.90;;;;;;5048142;28;20218;-70
2023/07/26 00:43:54;;;;;;;14.40;12.95;;;15.20;99.90;;;;;;5043245;28;20225;-68
2023/07/26 00:46:20;;;;;;;15.10;12.55;;;15.00;99.90;;;;;;5045621;28;20243;-69
2023/07/26 00:48:46;;;;;;;12.80;11.60;;;15.20;99.90;;;;;;5058991;28;20274;-69
2023/07/26 00:51:12;;;;;;;13.67;12.37;;;15.30;99.90;;;;;;5058565;28;20636;-71
2023/07/26 00:53:37;;;;;;;12.32;11.13;;;15.10;99.90;;;;;;5045953;28;20681;-69
2023/07/26 00:56:03;;;;;;;13.50;12.00;;;15.10;99.90;;;;;;5063856;28;21052;-69
2023/07/26 00:58:29;;;;;;;13.20;12.05;;;15.20;99.90;;;;;;5061006;28;20181;-69
2023/07/26 01:00:55;;;;;;;12.40;11.38;;;15.30;99.90;;;;;;5064501;28;20239;-68
2023/07/26 01:03:21;;;;;;;12.10;11.00;;;15.40;99.90;;;;;;5061189;28;20242;-69
2023/07/26 01:05:57;;;;;;;12.37;11.00;;;15.00;99.90;;;;;;5064688;28;20224;-70
2023/07/26 01:08:59;;;;;;;11.35;10.35;;;14.80;99.90;;;;;;5066223;28;20493;-68
2023/07/26 01:11:38;;;;;;;11.88;10.88;;;15.20;99.90;;;;;;5002103;28;20196;-70
2023/07/26 01:14:07;;;;;;;13.63;11.35;;;15.00;99.90;;;;;;5068309;28;20209;-69
2023/07/26 01:16:32;;;;;;;12.40;11.20;;;15.10;99.90;;;;;;5050965;28;20650;-69
2023/07/26 01:18:58;;;;;;;15.30;11.23;;;15.10;99.90;;;;;;5049403;28;20188;-69
2023/07/26 01:21:24;;;;;;;12.70;11.40;;;14.90;99.90;;;;;;5067158;28;20943;-71
2023/07/26 01:23:49;;;;;;;12.13;10.93;;;15.10;99.90;;;;;;5068348;28;20189;-70
2023/07/26 01:26:15;;;;;;;11.97;9.53;;;15.10;99.90;;;;;;5066734;28;20209;-69
2023/07/26 01:28:40;;;;;;;10.27;9.27;;;14.90;99.90;;;;;;5064658;28;20189;-70
2023/07/26 01:31:09;;;;;;;11.37;9.63;;;14.80;99.90;;;;;;5049114;28;20227;-71
2023/07/26 01:33:37;;;;;;;10.98;10.02;;;14.70;99.90;;;;;;5051254;28;20184;-71
2023/07/26 01:36:04;;;;;;;10.15;8.55;;;14.90;99.90;;;;;;5069360;28;20189;-69
2023/07/26 01:38:30;;;;;;;8.68;7.88;;;15.00;99.90;;;;;;5062462;28;20180;-70
2023/07/26 01:40:57;;;;;;;7.90;7.20;;;14.70;99.90;;;;;;5048859;28;20188;-69
2023/07/26 01:43:23;;;;;;;8.27;7.47;;;14.80;99.90;;;;;;5065841;28;20206;-70
2023/07/26 01:45:48;;;;;;;8.73;7.00;;;14.70;99.90;;;;;;5047357;28;20701;-70
2023/07/26 01:48:14;;;;;;;8.33;6.37;;;14.70;99.90;;;;;;5050861;28;20276;-70
2023/07/26 01:50:40;;;;;;;6.70;6.10;;;14.80;99.90;;;;;;5066420;28;20208;-71
2023/07/26 01:53:05;;;;;;;8.00;7.30;;;14.90;99.90;;;;;;5067282;28;20185;-69
2023/07/26 01:55:31;;;;;;;7.03;6.30;;;14.70;99.90;;;;;;5068000;28;20280;-71
2023/07/26 01:57:56;;;;;;;6.90;6.30;;;14.80;99.90;;;;;;5066672;28;20241;-69
2023/07/26 02:00:22;;;;;;;8.27;7.57;;;14.60;99.90;;;;;;5066699;28;20233;-70
2023/07/26 02:02:48;;;;;;;7.20;6.53;;;14.90;99.90;;;;;;5050720;28;20204;-69
2023/07/26 02:05:13;;;;;;;9.37;7.47;;;14.70;99.90;;;;;;5043033;28;20201;-71
2023/07/26 02:07:39;;;;;;;7.57;6.87;;;14.90;99.90;;;;;;5044397;28;20673;-72
2023/07/26 02:10:05;;;;;;;8.13;7.37;;;14.70;99.90;;;;;;5050908;28;20597;-71
2023/07/26 02:12:30;;;;;;;7.30;6.60;;;14.80;99.90;;;;;;5050195;28;20180;-69
2023/07/26 02:14:56;;;;;;;7.80;7.00;;;14.40;99.90;;;;;;5069293;28;20982;-69
2023/07/26 02:17:22;;;;;;;6.83;6.23;;;14.60;99.90;;;;;;5050500;28;20184;-70
2023/07/26 02:19:47;;;;;;;6.70;6.17;;;14.70;99.90;;;;;;5067940;28;20266;-69
2023/07/26 02:22:13;;;;;;;10.70;9.73;;;14.50;99.90;;;;;;5064760;28;20320;-68
2023/07/26 02:24:38;;;;;;;6.63;6.00;;;14.50;99.90;;;;;;5068454;28;20958;-68
2023/07/26 02:27:04;;;;;;;6.47;5.87;;;14.20;99.90;;;;;;5066129;28;20204;-71
2023/07/26 02:29:30;;;;;;;6.87;6.27;;;14.30;99.90;;;;;;5067533;28;20184;-68
2023/07/26 02:31:57;;;;;;;6.10;5.60;;;14.10;99.90;;;;;;5069041;28;20446;-68
2023/07/26 02:34:22;;;;;;;6.50;5.90;;;14.20;99.90;;;;;;5049379;28;20354;-69
2023/07/26 02:36:48;;;;;;;6.57;6.07;;;14.40;99.90;;;;;;5062224;28;20181;-69
2023/07/26 02:39:14;;;;;;;6.07;5.67;;;14.40;99.90;;;;;;5052106;28;20184;-70
2023/07/26 02:41:39;;;;;;;5.73;5.33;;;14.30;99.90;;;;;;5067855;28;20217;-71
2023/07/26 02:44:06;;;;;;;9.83;5.77;;;14.20;99.90;;;;;;5046893;28;20634;-69
2023/07/26 02:46:31;;;;;;;6.95;6.15;;;14.50;99.90;;;;;;5047222;28;20213;-70
2023/07/26 02:48:57;;;;;;;7.23;5.93;;;14.50;99.90;;;;;;5049675;28;20613;-69
2023/07/26 02:51:22;;;;;;;5.97;5.47;;;14.20;99.90;;;;;;5045109;28;20277;-69
2023/07/26 02:53:49;;;;;;;10.33;5.80;;;14.30;99.90;;;;;;5063811;28;20196;-70
2023/07/26 02:56:14;;;;;;;6.47;5.88;;;14.40;99.90;;;;;;5054145;28;20188;-70
2023/07/26 02:58:40;;;;;;;6.27;5.77;;;14.40;99.90;;;;;;5049689;28;20581;-70
2023/07/26 03:01:05;;;;;;;6.10;5.60;;;13.80;99.90;;;;;;5047562;28;20189;-71
2023/07/26 03:03:31;;;;;;;7.00;6.40;;;14.10;99.90;;;;;;5068923;28;20194;-69
2023/07/26 03:06:00;;;;;;;6.30;5.73;;;14.30;99.90;;;;;;5052417;28;20205;-68
2023/07/26 03:08:26;;;;;;;6.57;5.97;;;14.30;99.90;;;;;;5065222;28;20189;-69
2023/07/26 03:10:52;;;;;;;6.40;5.10;;;14.40;99.90;;;;;;5053282;28;20177;-69
2023/07/26 03:13:18;;;;;;;6.68;5.78;;;14.20;99.90;;;;;;5072194;28;20192;-69
2023/07/26 03:15:44;;;;;;;5.83;5.23;;;14.40;99.90;;;;;;5071151;28;20311;-71
2023/07/26 03:18:10;;;;;;;9.70;6.45;;;14.30;99.90;;;;;;5064818;28;20180;-71
2023/07/26 03:20:36;;;;;;;6.10;5.60;;;14.30;99.90;;;;;;5048073;28;20191;-70
2023/07/26 03:23:01;;;;;;;6.77;6.27;;;14.40;99.90;;;;;;5048628;28;20189;-71
2023/07/26 03:25:27;;;;;;;6.87;6.27;;;14.30;99.90;;;;;;5070180;28;20200;-70
2023/07/26 03:27:53;;;;;;;6.87;6.27;;;14.10;99.90;;;;;;5047119;28;20185;-74
2023/07/26 03:30:18;;;;;;;9.68;6.32;;;14.30;99.90;;;;;;5049789;28;20187;-71
2023/07/26 03:32:44;;;;;;;6.57;5.97;;;14.30;99.90;;;;;;5063282;28;20184;-68
2023/07/26 03:35:09;;;;;;;6.53;6.03;;;14.20;99.90;;;;;;5072781;28;20254;-71
2023/07/26 03:37:35;;;;;;;6.90;6.20;;;14.30;99.90;;;;;;5046906;28;20206;-72
2023/07/26 03:40:01;;;;;;;6.33;5.83;;;14.20;99.90;;;;;;5061738;28;20184;-71
2023/07/26 03:42:27;;;;;;;8.57;6.60;;;14.50;99.90;;;;;;5048033;28;21012;-70
2023/07/26 03:44:53;;;;;;;6.28;5.63;;;14.60;99.90;;;;;;5063195;28;20204;-71
2023/07/26 03:47:19;;;;;;;6.50;5.90;;;14.20;99.90;;;;;;5064286;28;20231;-67
2023/07/26 03:49:44;;;;;;;6.60;6.10;;;14.20;99.90;;;;;;5067490;28;20183;-68
2023/07/26 03:52:10;;;;;;;6.50;5.73;;;14.20;99.90;;;;;;5046440;28;20192;-69
2023/07/26 03:54:35;;;;;;;6.67;6.10;;;14.20;99.90;;;;;;5067079;28;20193;-68
2023/07/26 03:57:01;;;;;;;7.97;6.27;;;14.10;99.90;;;;;;5067048;28;20193;-70
2023/07/26 03:59:27;;;;;;;7.70;7.10;;;14.00;99.90;;;;;;5043494;28;20320;-71
2023/07/26 04:01:52;;;;;;;8.03;5.87;;;14.00;99.90;;;;;;5066286;28;20180;-69
2023/07/26 04:04:18;;;;;;;8.07;5.67;;;14.00;99.90;;;;;;5045689;28;20286;-68
2023/07/26 04:06:43;;;;;;;6.87;6.17;;;13.90;99.90;;;;;;5045590;28;20219;-71
2023/07/26 04:09:09;;;;;;;7.10;6.50;;;13.80;99.90;;;;;;5068380;28;20676;-68
2023/07/26 04:11:34;;;;;;;7.20;6.60;;;14.10;99.90;;;;;;5053347;28;20205;-69
2023/07/26 04:14:00;;;;;;;8.47;6.30;;;13.90;99.90;;;;;;5049661;28;20208;-70
2023/07/26 04:16:26;;;;;;;10.37;6.20;;;13.90;99.90;;;;;;5067452;28;20181;-70
2023/07/26 04:18:52;;;;;;;7.00;6.40;;;14.20;99.90;;;;;;5066452;28;20181;-72
2023/07/26 04:21:18;;;;;;;6.78;6.07;;;13.90;99.90;;;;;;5048606;28;20525;-70
2023/07/26 04:23:45;;;;;;;5.83;5.43;;;14.00;99.90;;;;;;5066474;28;20675;-65
2023/07/26 04:26:11;;;;;;;6.53;5.22;;;14.00;99.90;;;;;;5049313;28;20458;-68
2023/07/26 04:28:37;;;;;;;6.57;5.93;;;14.00;99.90;;;;;;5062876;28;20185;-65
2023/07/26 04:31:03;;;;;;;6.78;6.18;;;14.10;99.90;;;;;;5065889;28;20189;-66
2023/07/26 04:33:28;;;;;;;5.80;5.20;;;14.20;99.90;;;;;;5065838;28;20177;-66
2023/07/26 04:35:54;;;;;;;6.10;5.60;;;14.50;99.90;;;;;;5064268;28;21013;-68
2023/07/26 04:38:20;;;;;;;7.73;5.60;;;14.30;99.90;;;;;;5062002;28;20839;-66
2023/07/26 04:40:47;;;;;;;6.20;5.60;;;14.40;99.90;;;;;;5065979;28;20189;-67
2023/07/26 04:43:16;;;;;;;5.35;4.90;;;14.30;99.90;;;;;;5047190;28;20212;-67
2023/07/26 04:45:42;;;;;;;4.97;4.57;;;14.50;99.90;;;;;;5074617;28;20188;-65
2023/07/26 04:48:08;;;;;;;6.45;5.60;;;14.30;99.90;;;;;;5067338;28;20185;-66
2023/07/26 04:50:33;;;;;;;5.40;5.00;;;14.60;99.90;;;;;;5055051;28;20195;-66
2023/07/26 04:52:59;;;;;;;6.40;5.40;;;14.70;99.90;;;;;;5050580;28;20191;-65
2023/07/26 04:55:24;;;;;;;6.53;5.33;;;14.60;99.90;;;;;;5067838;28;20212;-66
2023/07/26 04:57:50;;;;;;;6.17;5.57;;;14.70;99.90;;;;;;5050111;28;20188;-67
2023/07/26 05:00:16;;;;;;;6.40;5.80;;;14.60;99.90;;;;;;5067091;28;20196;-67
2023/07/26 05:02:41;;;;;;;6.87;6.27;;;14.80;99.90;;;;;;5070907;28;20189;-67
2023/07/26 05:05:07;;;;;;;5.90;5.40;;;14.80;99.90;;;;;;5071955;28;20222;-67
2023/07/26 05:07:33;;;;;;;6.20;5.70;;;14.90;99.90;;;;;;5068325;28;20213;-67
2023/07/26 05:09:58;;;;;;;6.57;6.07;;;15.20;99.90;;;;;;5068741;28;21509;-65
2023/07/26 05:12:24;;;;;;;7.20;6.60;;;15.00;99.90;;;;;;5049679;28;20181;-66
2023/07/26 05:14:50;;;;;;;7.17;6.00;;;15.10;99.90;;;;;;5061644;28;20193;-66
2023/07/26 05:17:16;;;;;;;7.60;6.50;;;15.20;99.90;;;;;;5050674;28;20222;-67
2023/07/26 05:19:42;;;;;;;6.85;6.25;;;15.20;99.90;;;;;;5068431;28;20185;-66
2023/07/26 05:22:07;;;;;;;7.13;5.93;;;15.30;99.90;;;;;;5069155;28;20188;-66
2023/07/26 05:24:33;;;;;;;6.77;5.60;;;15.30;99.90;;;;;;5068079;28;20216;-67
2023/07/26 05:26:59;;;;;;;8.20;7.43;;;15.30;99.90;;;;;;5050763;28;20220;-66
2023/07/26 05:29:25;;;;;;;6.03;5.53;;;15.20;99.90;;;;;;5048340;28;20188;-67
2023/07/26 05:31:51;;;;;;;6.17;5.60;;;15.30;99.90;;;;;;5052526;28;20755;-67
2023/07/26 05:34:16;;;;;;;6.10;5.60;;;15.50;99.90;;;;;;5068012;28;20596;-67
2023/07/26 05:36:42;;;;;;;5.60;5.10;;;15.20;99.90;;;;;;5067739;28;20191;-67
2023/07/26 05:39:08;;;;;;;8.07;5.43;;;15.30;99.90;;;;;;5070042;28;20181;-66
2023/07/26 05:41:33;;;;;;;5.30;4.83;;;15.20;99.90;;;;;;5069889;28;20195;-66
2023/07/26 05:43:59;;;;;;;9.57;6.50;;;15.00;99.90;;;;;;5053926;28;20216;-68
2023/07/26 05:46:25;;;;;;;7.83;5.77;;;15.40;99.90;;;;;;5070569;28;20251;-65
2023/07/26 05:48:51;;;;;;;6.10;5.60;;;15.20;99.90;;;;;;5054470;28;20988;-65
2023/07/26 05:51:16;;;;;;;6.90;6.30;;;15.20;99.90;;;;;;5067638;28;20180;-65
2023/07/26 05:53:42;;;;;;;7.67;5.93;;;15.60;99.90;;;;;;5067413;28;20181;-65
2023/07/26 05:56:08;;;;;;;6.20;5.60;;;15.30;99.90;;;;;;5051526;28;20188;-66
2023/07/26 05:58:33;;;;;;;6.30;5.70;;;15.50;99.90;;;;;;5068425;28;20196;-67
2023/07/26 06:00:59;;;;;;;6.67;6.07;;;15.60;99.90;;;;;;5065325;28;20268;-66
2023/07/26 06:03:25;;;;;;;7.97;5.60;;;15.70;99.90;;;;;;5066684;28;20193;-66
2023/07/26 06:05:50;;;;;;;7.23;5.67;;;15.90;99.90;;;;;;5049582;28;20213;-66
2023/07/26 06:08:17;;;;;;;5.63;5.07;;;16.20;99.90;;;;;;5066444;28;20192;-67
2023/07/26 06:10:43;;;;;;;5.22;4.78;;;16.10;99.90;;;;;;5066580;28;20177;-68
2023/07/26 06:13:12;;;;;;;5.20;4.80;;;16.40;99.90;;;;;;5061822;28;20563;-68
2023/07/26 06:15:39;;;;;;;5.53;5.00;;;16.60;99.90;;;;;;5066072;28;20823;-65
2023/07/26 06:18:05;;;;;;;8.48;5.25;;;16.50;99.90;;;;;;5063958;28;20189;-67
2023/07/26 06:20:30;;;;;;;5.80;5.40;;;16.60;99.90;;;;;;5064161;28;20182;-69
2023/07/26 06:22:56;;;;;;;5.57;5.00;;;17.00;99.90;;;;;;5068010;28;20264;-65
2023/07/26 06:25:21;;;;;;;6.60;5.03;;;17.20;99.90;;;;;;5065241;28;20259;-66
2023/07/26 06:27:47;;;;;;;4.83;4.43;;;17.50;99.90;;;;;;5066867;28;21156;-66
2023/07/26 06:30:15;;;;;;;4.67;4.27;;;17.40;99.90;;;;;;5068286;28;20239;-66
2023/07/26 06:32:41;;;;;;;4.78;4.35;;;17.40;99.90;;;;;;5068459;28;20180;-65
2023/07/26 06:35:11;;;;;;;5.03;4.63;;;17.40;99.90;;;;;;5052815;28;20206;-65
2023/07/26 06:37:36;;;;;;;5.60;4.68;;;17.60;99.90;;;;;;5065492;28;20192;-65
2023/07/26 06:40:03;;;;;;;6.60;4.33;;;17.50;99.90;;;;;;5051437;28;20194;-67
2023/07/26 06:42:29;;;;;;;5.72;4.90;;;17.40;99.90;;;;;;5051330;28;20235;-62
2023/07/26 06:44:54;;;;;;;6.30;4.30;;;17.40;99.90;;;;;;5065848;28;20240;-66
2023/07/26 06:47:20;;;;;;;5.90;4.40;;;17.50;99.90;;;;;;5074913;28;20501;-66
2023/07/26 06:49:46;;;;;;;4.97;4.57;;;17.50;99.90;;;;;;5054903;28;20176;-65
2023/07/26 06:52:11;;;;;;;5.87;4.90;;;17.70;99.90;;;;;;5077645;28;20185;-66
2023/07/26 06:54:37;;;;;;;4.10;3.80;;;18.00;99.90;;;;;;5065391;28;20274;-66
2023/07/26 06:57:03;;;;;;;4.57;4.20;;;18.50;99.90;;;;;;5069502;28;20450;-66
2023/07/26 06:59:29;;;;;;;4.63;3.85;;;18.00;99.90;;;;;;5073676;28;20272;-67
2023/07/26 07:01:54;;;;;;;4.00;3.70;;;18.00;99.90;;;;;;5077872;28;20260;-65
2023/07/26 07:04:20;;;;;;;4.40;4.10;;;17.80;99.90;;;;;;5073706;28;20631;-65
2023/07/26 07:06:46;;;;;;;6.00;4.13;;;17.80;99.90;;;;;;5072840;28;20290;-66
2023/07/26 07:09:12;;;;;;;4.90;4.40;;;17.80;99.90;;;;;;5056702;28;20901;-66
2023/07/26 07:11:38;;;;;;;4.70;4.28;;;17.70;99.90;;;;;;5068624;28;20258;-64
2023/07/26 07:14:03;;;;;;;6.00;4.50;;;17.70;99.90;;;;;;5048464;28;20207;-68
2023/07/26 07:16:29;;;;;;;5.13;4.63;;;17.60;99.90;;;;;;5055983;28;20233;-64
2023/07/26 07:18:55;;;;;;;4.73;4.40;;;17.50;99.90;;;;;;5050309;28;20188;-64
2023/07/26 07:21:21;;;;;;;5.20;4.70;;;17.40;99.90;;;;;;5052769;28;20195;-62
2023/07/26 07:23:47;;;;;;;6.35;4.70;;;17.20;99.90;;;;;;5072164;28;20202;-63
2023/07/26 07:26:13;;;;;;;6.68;5.50;;;17.20;99.90;;;;;;5074182;28;20266;-64
2023/07/26 07:28:39;;;;;;;5.80;5.30;;;17.10;99.90;;;;;;5048191;28;20202;-63
2023/07/26 07:31:06;;;;;;;7.13;5.90;;;16.90;99.90;;;;;;5074953;28;20184;-64
2023/07/26 07:33:31;;;;;;;6.75;5.80;;;15.90;99.90;;;;;;5080188;28;20275;-63
2023/07/26 07:35:57;;;;;;;6.27;5.60;;;16.80;99.90;;;;;;5055240;28;20323;-63
2023/07/26 07:38:23;;;;;;;9.60;5.30;;;16.60;99.90;;;;;;5066752;28;20196;-63
2023/07/26 07:40:49;;;;;;;6.57;5.97;;;16.50;99.90;;;;;;5069299;28;20192;-62
2023/07/26 07:43:15;;;;;;;7.68;5.60;;;16.20;99.90;;;;;;5064928;28;20200;-64
2023/07/26 07:45:41;;;;;;;7.30;6.60;;;16.30;99.90;;;;;;5047758;28;20215;-66
2023/07/26 07:48:07;;;;;;;5.90;5.40;;;15.90;99.90;;;;;;5070554;28;20749;-67
2023/07/26 07:50:33;;;;;;;6.35;5.90;;;16.20;99.90;;;;;;5051087;28;20438;-66
2023/07/26 07:52:59;;;;;;;7.93;5.80;;;16.20;99.90;;;;;;5072560;28;20176;-67
2023/07/26 07:55:24;;;;;;;6.60;6.10;;;16.40;99.90;;;;;;5067470;28;20207;-65
2023/07/26 07:57:50;;;;;;;6.10;5.57;;;16.50;99.90;;;;;;5061320;28;20264;-64
2023/07/26 08:00:16;;;;;;;5.63;5.20;;;16.70;99.90;;;;;;5062226;28;20180;-66
2023/07/26 08:02:42;;;;;;;5.85;5.30;;;16.50;99.90;;;;;;5066074;28;20873;-65
2023/07/26 08:05:08;;;;;;;7.13;5.30;;;16.40;99.90;;;;;;5068595;28;20232;-65
2023/07/26 08:07:34;;;;;;;5.63;5.13;;;16.60;99.90;;;;;;5063499;28;20284;-68
2023/07/26 08:10:00;;;;;;;5.20;4.80;;;16.50;99.90;;;;;;5071433;28;20271;-66
2023/07/26 08:12:25;;;;;;;5.27;4.87;;;16.60;99.90;;;;;;5046963;28;20192;-69
2023/07/26 08:14:51;;;;;;;5.57;5.17;;;16.00;99.90;;;;;;5046405;28;20287;-69
2023/07/26 08:17:17;;;;;;;5.80;4.73;;;16.30;99.90;;;;;;5059362;28;20176;-67
2023/07/26 08:19:43;;;;;;;5.10;4.40;;;16.70;99.90;;;;;;5057090;28;20482;-68
2023/07/26 08:22:09;;;;;;;4.85;4.45;;;16.40;99.90;;;;;;5068924;28;20192;-67
2023/07/26 08:24:34;;;;;;;5.30;4.80;;;16.40;99.90;;;;;;5057899;28;20203;-67
2023/07/26 08:27:00;;;;;;;4.67;4.37;;;16.30;99.90;;;;;;5065546;28;20221;-68
2023/07/26 08:29:26;;;;;;;4.77;4.37;;;16.30;99.90;;;;;;5071303;28;20183;-67
2023/07/26 08:31:51;;;;;;;4.13;3.83;;;16.30;99.90;;;;;;5050945;28;20283;-67
2023/07/26 08:34:17;;;;;;;5.03;3.90;;;16.30;99.90;;;;;;5072328;28;20200;-67
2023/07/26 08:36:43;;;;;;;4.60;4.27;;;16.40;99.90;;;;;;5048792;28;20449;-63
2023/07/26 08:39:08;;;;;;;5.67;3.40;;;16.20;99.90;;;;;;5049102;28;20189;-63
2023/07/26 08:41:35;;;;;;;3.73;3.30;;;16.40;99.90;;;;;;5067266;28;20189;-63
2023/07/26 08:44:04;;;;;;;3.22;3.03;;;16.50;99.90;;;;;;5075172;28;20273;-64
2023/07/26 08:46:30;;;;;;;4.22;3.42;;;16.60;99.90;;;;;;5064027;28;20713;-63
2023/07/26 08:48:58;;;;;;;3.20;2.83;;;16.40;99.90;;;;;;5073874;28;20212;-64
2023/07/26 08:51:25;;;;;;;2.67;2.47;;;16.60;99.90;;;;;;5067056;28;20185;-64
2023/07/26 08:53:51;;;;;;;2.75;2.55;;;16.90;99.90;;;;;;5071676;28;20189;-65
2023/07/26 08:56:18;;;;;;;3.60;3.30;;;17.20;99.90;;;;;;5072348;28;20668;-64
2023/07/26 08:58:44;;;;;;;2.10;2.00;;;16.90;99.90;;;;;;5073345;28;20207;-65
2023/07/26 09:01:10;;;;;;;2.43;2.23;;;17.00;99.90;;;;;;5050445;28;20188;-64
2023/07/26 09:03:35;;;;;;;1.70;1.60;;;17.20;99.90;;;;;;5055344;28;20258;-65
2023/07/26 09:06:06;;;;;;;1.93;1.50;;;17.10;99.90;;;;;;5070176;28;20208;-65
2023/07/26 09:08:32;;;;;;;1.40;1.30;;;17.10;99.90;;;;;;5069947;28;20439;-65
2023/07/26 09:11:00;;;;;;;1.80;1.70;;;17.40;99.90;;;;;;5053202;28;20501;-64
2023/07/26 09:13:25;;;;;;;1.50;1.13;;;17.40;99.90;;;;;;5068259;28;20173;-63
2023/07/26 09:15:51;;;;;;;2.03;1.20;;;17.90;99.90;;;;;;5076507;28;20201;-65
2023/07/26 09:18:17;;;;;;;1.40;1.10;;;17.40;99.90;;;;;;5074536;28;20187;-65
2023/07/26 09:20:43;;;;;;;1.73;0.90;;;17.60;99.90;;;;;;5070755;28;20556;-64
2023/07/26 09:23:11;;;;;;;1.30;1.20;;;17.50;99.90;;;;;;5052319;28;20662;-64
2023/07/26 09:25:43;;;;;;;2.38;1.35;;;17.80;99.90;;;;;;5072659;28;20263;-63
2023/07/26 09:28:13;;;;;;;1.30;1.20;;;17.60;99.90;;;;;;5050401;28;20587;-64
2023/07/26 09:30:48;;;;;;;1.50;1.38;;;17.70;99.90;;;;;;5067428;28;20520;-63
2023/07/26 09:33:16;;;;;;;1.70;1.60;;;17.60;99.90;;;;;;5055961;28;20276;-65
2023/07/26 09:35:50;;;;;;;1.75;1.65;;;17.50;99.90;;;;;;5070586;28;20208;-64
2023/07/26 09:38:22;;;;;;;1.85;1.40;;;17.50;99.90;;;;;;5069129;28;20263;-63
2023/07/26 09:40:48;;;;;;;1.88;1.77;;;17.40;99.90;;;;;;5070163;28;20522;-63
2023/07/26 09:43:26;;;;;;;1.83;1.70;;;17.40;99.90;;;;;;5073218;28;20196;-64
2023/07/26 09:46:02;;;;;;;1.50;1.38;;;17.60;99.90;;;;;;5070380;28;20290;-64
2023/07/26 09:48:28;;;;;;;1.58;1.48;;;17.40;99.90;;;;;;5073025;28;20642;-63
2023/07/26 09:50:55;;;;;;;1.60;1.50;;;17.70;99.90;;;;;;5064863;28;20299;-63
2023/07/26 09:53:22;;;;;;;1.80;1.63;;;17.50;99.90;;;;;;5071203;28;20568;-65
2023/07/26 09:55:49;;;;;;;1.70;1.60;;;17.90;99.90;;;;;;5074906;28;20612;-64
2023/07/26 09:58:17;;;;;;;1.52;1.42;;;17.50;99.90;;;;;;5072552;28;20243;-67
2023/07/26 10:00:45;;;;;;;2.15;1.50;;;17.70;99.90;;;;;;5075700;28;20196;-65
2023/07/26 10:03:12;;;;;;;1.65;1.55;;;18.00;99.90;;;;;;5074840;28;20192;-64
2023/07/26 10:05:48;;;;;;;1.60;1.50;;;18.40;99.90;;;;;;5067974;28;20223;-64
2023/07/26 10:08:14;;;;;;;1.95;1.55;;;18.80;99.90;;;;;;5072101;28;20184;-64
2023/07/26 10:10:43;;;;;;;1.60;1.50;;;18.90;99.90;;;;;;5075637;28;20641;-64
2023/07/26 10:13:11;;;;;;;1.80;1.70;;;19.30;99.90;;;;;;5075852;28;20230;-64
2023/07/26 10:15:41;;;;;;;1.85;1.75;;;19.50;99.90;;;;;;5075056;28;20669;-64
2023/07/26 10:18:06;;;;;;;2.25;2.05;;;19.90;99.60;;;;;;5072613;28;20234;-64
2023/07/26 10:20:33;;;;;;;2.00;1.60;;;20.00;99.90;;;;;;5074708;28;20268;-64
2023/07/26 10:23:04;;;;;;;2.75;2.55;;;20.20;99.40;;;;;;5074399;28;20181;-64
2023/07/26 10:25:31;;;;;;;2.20;1.80;;;20.10;99.80;;;;;;5072843;28;20251;-64
2023/07/26 10:27:56;;;;;;;1.50;1.40;;;19.80;99.30;;;;;;5070233;28;21294;-64
2023/07/26 10:30:22;;;;;;;1.93;1.80;;;19.90;99.40;;;;;;5067411;28;20176;-64
2023/07/26 10:32:48;;;;;;;1.97;1.77;;;19.90;99.10;;;;;;5065577;28;20235;-64
2023/07/26 10:35:33;;;;;;;1.70;1.60;;;19.80;99.30;;;;;;5054789;28;20668;-64
2023/07/26 10:38:02;;;;;;;1.70;1.60;;;19.90;98.30;;;;;;5065648;28;20435;-64
2023/07/26 10:40:28;;;;;;;2.63;2.42;;;19.20;97.30;;;;;;5065298;28;20177;-64
2023/07/26 10:42:54;;;;;;;2.10;1.90;;;19.10;99.10;;;;;;5068821;28;20204;-65
2023/07/26 10:45:43;;;;;;;1.80;1.70;;;19.10;98.80;;;;;;5075095;28;20250;-64
2023/07/26 10:48:37;;;;;;;1.90;1.80;;;19.40;98.20;;;;;;5071828;28;20227;-64
2023/07/26 10:51:24;;;;;;;2.05;1.50;;;19.70;98.10;;;;;;5051990;28;20189;-63
2023/07/26 10:53:49;;;;;;;2.38;2.17;;;20.00;96.90;;;;;;5046704;28;20200;-63
2023/07/26 10:56:21;;;;;;;2.50;2.30;;;20.20;96.10;;;;;;5075686;28;20558;-63
2023/07/26 10:58:54;;;;;;;4.15;2.25;;;20.30;95.00;;;;;;5067068;28;20184;-64
2023/07/26 11:02:01;;;;;;;2.47;2.10;;;20.40;96.00;;;;;;5070768;28;20263;-62
2023/07/26 11:04:28;;;;;;;2.17;1.98;;;20.60;94.10;;;;;;5026493;28;20212;-63
2023/07/26 11:06:58;;;;;;;1.88;1.77;;;20.50;94.80;;;;;;5072110;28;20287;-62
2023/07/26 11:09:25;;;;;;;8.52;2.17;;;20.70;94.00;;;;;;5063421;28;20478;-64
2023/07/26 11:11:57;;;;;;;2.88;1.88;;;20.70;93.80;;;;;;5068085;28;20299;-62
2023/07/26 11:14:25;;;;;;;2.30;2.00;;;20.80;93.70;;;;;;5067524;28;20223;-63
2023/07/26 11:16:51;;;;;;;2.08;1.88;;;20.70;94.00;;;;;;5069253;28;20554;-62
2023/07/26 11:19:16;;;;;;;2.50;2.30;;;20.80;93.00;;;;;;5073893;28;20208;-62
2023/07/26 11:21:43;;;;;;;2.77;2.47;;;20.80;93.60;;;;;;5074537;28;20223;-63
2023/07/26 11:24:09;;;;;;;2.40;1.92;;;20.90;94.70;;;;;;5073416;28;20211;-63
2023/07/26 11:26:44;;;;;;;2.22;2.00;;;21.20;93.90;;;;;;5076105;28;20210;-63
2023/07/26 11:29:11;;;;;;;3.05;2.40;;;21.20;92.90;;;;;;5072578;28;20244;-63
2023/07/26 11:31:36;;;;;;;3.40;3.10;;;21.20;93.30;;;;;;5057402;28;20186;-63
2023/07/26 11:34:31;;;;;;;2.73;2.40;;;21.20;92.70;;;;;;5055206;28;20217;-63
2023/07/26 11:37:08;;;;;;;2.95;2.25;;;21.50;92.40;;;;;;5063353;28;20869;-63
2023/07/26 11:39:34;;;;;;;4.78;1.98;;;21.90;92.40;;;;;;5068379;28;20462;-63
2023/07/26 11:42:00;;;;;;;2.60;2.33;;;22.00;91.10;;;;;;5075306;28;20656;-63
2023/07/26 11:44:26;;;;;;;4.00;3.70;;;23.40;90.80;;;;;;5066367;28;20566;-63
2023/07/26 11:46:52;;;;;;;1.80;1.70;;;23.90;89.30;;;;;;5074383;28;20558;-63
2023/07/26 11:49:23;;;;;;;2.10;1.90;;;25.30;83.60;;;;;;5072427;28;20441;-64
2023/07/26 11:51:50;;;;;;;2.23;1.90;;;25.60;77.30;;;;;;5067783;28;20175;-64
2023/07/26 11:54:17;;;;;;;2.83;2.63;;;25.40;76.00;;;;;;5051122;28;20469;-65
2023/07/26 11:56:43;;;;;;;2.73;2.17;;;24.70;76.40;;;;;;5072377;28;20444;-64
2023/07/26 11:59:11;;;;;;;2.40;1.90;;;24.70;74.60;;;;;;5066066;28;20442;-63
2023/07/26 12:01:38;;;;;;;2.70;2.50;;;24.30;75.40;;;;;;5052763;28;20501;-62
2023/07/26 12:04:11;;;;;;;3.10;2.80;;;23.80;76.30;;;;;;5067069;28;20997;-63
2023/07/26 12:06:37;;;;;;;2.90;2.23;;;23.40;79.90;;;;;;5068674;28;20557;-64
2023/07/26 12:09:10;;;;;;;2.70;2.50;;;23.30;78.00;;;;;;5071746;28;20439;-63
2023/07/26 12:11:37;;;;;;;2.90;2.70;;;23.20;78.50;;;;;;5058024;28;20438;-64
2023/07/26 12:14:03;;;;;;;3.30;2.33;;;22.90;78.80;;;;;;5064689;28;20463;-64
2023/07/26 12:16:30;;;;;;;2.53;2.30;;;22.50;79.90;;;;;;5074665;28;20512;-64
2023/07/26 12:19:00;;;;;;;4.23;2.63;;;22.30;80.50;;;;;;5070012;28;20204;-63
2023/07/26 12:21:28;;;;;;;3.58;2.90;;;21.90;81.10;;;;;;5051039;28;20468;-63
2023/07/26 12:23:58;;;;;;;2.72;2.40;;;21.90;83.50;;;;;;5078754;28;20756;-63
2023/07/26 12:26:29;;;;;;;2.70;2.50;;;21.80;84.40;;;;;;5055162;28;20258;-63
2023/07/26 12:28:55;;;;;;;3.20;2.55;;;21.60;83.70;;;;;;5074506;28;20634;-63
2023/07/26 12:31:31;;;;;;;2.75;2.55;;;21.50;82.50;;;;;;5052805;28;20369;-63
2023/07/26 12:34:01;;;;;;;3.97;2.53;;;21.40;83.10;;;;;;5056127;28;20211;-63
2023/07/26 12:36:45;;;;;;;2.70;2.50;;;21.30;84.20;;;;;;5074375;28;20177;-62
2023/07/26 12:39:12;;;;;;;4.13;3.00;;;21.30;84.70;;;;;;5072138;28;20263;-63
2023/07/26 12:41:39;;;;;;;2.25;2.05;;;21.20;84.80;;;;;;5073321;28;20263;-63